Terminal Aerodrome Forecast
Issued by NWS

Home | Current Version | Previous Version | Text Only | Print | Product List | Glossary On
Versions: 1 2 3 4 5 6 7 8 9 10 11 12 13 14 15
000
FTUS41 KCAR 241133
TAFHUL
TAF
KHUL 241133Z 2412/2512 15010KT P6SM OVC080
     FM241400 15010KT P6SM SCT015 OVC025
     FM241600 13010G18KT 5SM -RA BR OVC007
     FM242300 14011KT 4SM -DZ BR OVC004
     FM250800 21012KT P6SM BKN025=

USA.gov is the U.S. government's official web portal to all federal, state and local government web resources and services.